sensor_id;sensor_type;location;lat;lon;timestamp;P1;durP1;ratioP1;P2;durP2;ratioP2
27925;SDS011;15267;47.838;12.128;2023-01-08T00:01:51;17.27;;;11.82;;
27925;SDS011;15267;47.838;12.128;2023-01-08T00:04:17;18.17;;;11.32;;
27925;SDS011;15267;47.838;12.128;2023-01-08T00:06:43;16.27;;;10.77;;
27925;SDS011;15267;47.838;12.128;2023-01-08T00:09:10;16.92;;;11.13;;
27925;SDS011;15267;47.838;12.128;2023-01-08T00:11:36;17.65;;;11.60;;
27925;SDS011;15267;47.838;12.128;2023-01-08T00:14:02;18.35;;;11.50;;
27925;SDS011;15267;47.838;12.128;2023-01-08T00:16:28;16.85;;;11.70;;
27925;SDS011;15267;47.838;12.128;2023-01-08T00:18:54;17.42;;;11.85;;
27925;SDS011;15267;47.838;12.128;2023-01-08T00:21:20;19.10;;;12.35;;
27925;SDS011;15267;47.838;12.128;2023-01-08T00:23:46;16.58;;;11.93;;
27925;SDS011;15267;47.838;12.128;2023-01-08T00:26:12;17.98;;;11.63;;
27925;SDS011;15267;47.838;12.128;2023-01-08T00:28:38;17.58;;;12.13;;
27925;SDS011;15267;47.838;12.128;2023-01-08T00:31:05;19.60;;;11.63;;
27925;SDS011;15267;47.838;12.128;2023-01-08T00:33:31;17.27;;;12.52;;
27925;SDS011;15267;47.838;12.128;2023-01-08T00:35:57;18.90;;;13.18;;
27925;SDS011;15267;47.838;12.128;2023-01-08T00:38:24;19.98;;;13.43;;
27925;SDS011;15267;47.838;12.128;2023-01-08T00:40:50;19.77;;;12.80;;
27925;SDS011;15267;47.838;12.128;2023-01-08T00:43:16;17.52;;;11.65;;
27925;SDS011;15267;47.838;12.128;2023-01-08T00:45:42;17.83;;;12.20;;
27925;SDS011;15267;47.838;12.128;2023-01-08T00:48:08;14.20;;;10.93;;
27925;SDS011;15267;47.838;12.128;2023-01-08T00:50:34;17.58;;;11.15;;
27925;SDS011;15267;47.838;12.128;2023-01-08T00:53:00;19.70;;;11.77;;
27925;SDS011;15267;47.838;12.128;2023-01-08T00:55:27;19.02;;;11.75;;
27925;SDS011;15267;47.838;12.128;2023-01-08T00:57:53;17.08;;;11.48;;
27925;SDS011;15267;47.838;12.128;2023-01-08T01:00:19;17.90;;;11.55;;
27925;SDS011;15267;47.838;12.128;2023-01-08T01:02:45;17.40;;;11.70;;
27925;SDS011;15267;47.838;12.128;2023-01-08T01:05:12;16.85;;;11.65;;
27925;SDS011;15267;47.838;12.128;2023-01-08T01:07:42;17.48;;;11.80;;
27925;SDS011;15267;47.838;12.128;2023-01-08T01:10:08;15.23;;;11.15;;
27925;SDS011;15267;47.838;12.128;2023-01-08T01:12:36;21.90;;;12.20;;
27925;SDS011;15267;47.838;12.128;2023-01-08T01:15:02;17.60;;;11.57;;
27925;SDS011;15267;47.838;12.128;2023-01-08T01:17:28;16.15;;;11.50;;
27925;SDS011;15267;47.838;12.128;2023-01-08T01:19:54;18.80;;;11.45;;
27925;SDS011;15267;47.838;12.128;2023-01-08T01:22:20;15.68;;;11.05;;
27925;SDS011;15267;47.838;12.128;2023-01-08T01:24:46;18.33;;;11.35;;
27925;SDS011;15267;47.838;12.128;2023-01-08T01:27:12;17.23;;;11.55;;
27925;SDS011;15267;47.838;12.128;2023-01-08T01:29:38;17.73;;;11.63;;
27925;SDS011;15267;47.838;12.128;2023-01-08T01:32:04;17.95;;;10.80;;
27925;SDS011;15267;47.838;12.128;2023-01-08T01:34:30;16.23;;;10.43;;
27925;SDS011;15267;47.838;12.128;2023-01-08T01:36:56;14.93;;;11.00;;
27925;SDS011;15267;47.838;12.128;2023-01-08T01:39:22;16.23;;;10.75;;
27925;SDS011;15267;47.838;12.128;2023-01-08T01:41:48;16.73;;;10.18;;
27925;SDS011;15267;47.838;12.128;2023-01-08T01:46:59;13.93;;;9.88;;
27925;SDS011;15267;47.838;12.128;2023-01-08T01:49:25;13.95;;;9.95;;
27925;SDS011;15267;47.838;12.128;2023-01-08T01:51:52;15.07;;;10.43;;
27925;SDS011;15267;47.838;12.128;2023-01-08T01:54:20;16.80;;;11.27;;
27925;SDS011;15267;47.838;12.128;2023-01-08T01:56:46;14.73;;;10.63;;
27925;SDS011;15267;47.838;12.128;2023-01-08T01:59:13;15.80;;;10.73;;
27925;SDS011;15267;47.838;12.128;2023-01-08T02:01:40;17.77;;;11.27;;
27925;SDS011;15267;47.838;12.128;2023-01-08T02:04:08;14.23;;;9.90;;
27925;SDS011;15267;47.838;12.128;2023-01-08T02:06:35;14.70;;;10.13;;
27925;SDS011;15267;47.838;12.128;2023-01-08T02:11:30;13.30;;;9.38;;
27925;SDS011;15267;47.838;12.128;2023-01-08T02:13:59;18.42;;;9.90;;
27925;SDS011;15267;47.838;12.128;2023-01-08T02:16:33;15.20;;;9.93;;
27925;SDS011;15267;47.838;12.128;2023-01-08T02:19:02;17.38;;;11.27;;
27925;SDS011;15267;47.838;12.128;2023-01-08T02:21:35;15.13;;;10.10;;
27925;SDS011;15267;47.838;12.128;2023-01-08T02:26:31;16.33;;;10.65;;
27925;SDS011;15267;47.838;12.128;2023-01-08T02:31:33;15.50;;;10.50;;
27925;SDS011;15267;47.838;12.128;2023-01-08T02:33:59;15.15;;;10.48;;
27925;SDS011;15267;47.838;12.128;2023-01-08T02:41:30;18.67;;;10.68;;
27925;SDS011;15267;47.838;12.128;2023-01-08T02:44:00;16.83;;;10.88;;
27925;SDS011;15267;47.838;12.128;2023-01-08T02:46:27;14.18;;;9.48;;
27925;SDS011;15267;47.838;12.128;2023-01-08T02:48:59;15.90;;;9.70;;
27925;SDS011;15267;47.838;12.128;2023-01-08T02:51:28;14.73;;;9.50;;
27925;SDS011;15267;47.838;12.128;2023-01-08T02:54:03;14.52;;;9.88;;
27925;SDS011;15267;47.838;12.128;2023-01-08T02:56:30;13.65;;;9.20;;
27925;SDS011;15267;47.838;12.128;2023-01-08T02:58:58;12.52;;;8.85;;
27925;SDS011;15267;47.838;12.128;2023-01-08T03:01:24;14.10;;;9.82;;
27925;SDS011;15267;47.838;12.128;2023-01-08T03:03:52;14.02;;;9.57;;
27925;SDS011;15267;47.838;12.128;2023-01-08T03:06:19;13.98;;;9.50;;
27925;SDS011;15267;47.838;12.128;2023-01-08T03:08:47;14.18;;;9.70;;
27925;SDS011;15267;47.838;12.128;2023-01-08T03:11:14;15.05;;;9.48;;
27925;SDS011;15267;47.838;12.128;2023-01-08T03:13:53;17.23;;;9.18;;
27925;SDS011;15267;47.838;12.128;2023-01-08T03:16:24;15.20;;;9.02;;
27925;SDS011;15267;47.838;12.128;2023-01-08T03:18:54;14.20;;;9.38;;
27925;SDS011;15267;47.838;12.128;2023-01-08T03:21:22;15.45;;;10.43;;
27925;SDS011;15267;47.838;12.128;2023-01-08T03:23:48;15.73;;;9.88;;
27925;SDS011;15267;47.838;12.128;2023-01-08T03:26:16;14.75;;;10.32;;
27925;SDS011;15267;47.838;12.128;2023-01-08T03:28:44;17.30;;;10.68;;
27925;SDS011;15267;47.838;12.128;2023-01-08T03:31:12;16.58;;;9.75;;
27925;SDS011;15267;47.838;12.128;2023-01-08T03:33:39;15.32;;;10.05;;
27925;SDS011;15267;47.838;12.128;2023-01-08T03:36:06;15.50;;;10.38;;
27925;SDS011;15267;47.838;12.128;2023-01-08T03:38:35;14.73;;;10.35;;
27925;SDS011;15267;47.838;12.128;2023-01-08T03:41:06;14.80;;;9.93;;
27925;SDS011;15267;47.838;12.128;2023-01-08T03:43:33;17.88;;;10.60;;
27925;SDS011;15267;47.838;12.128;2023-01-08T03:46:00;16.23;;;10.25;;
27925;SDS011;15267;47.838;12.128;2023-01-08T03:48:28;15.45;;;9.98;;
27925;SDS011;15267;47.838;12.128;2023-01-08T03:50:55;16.05;;;10.48;;
27925;SDS011;15267;47.838;12.128;2023-01-08T03:53:21;14.13;;;9.95;;
27925;SDS011;15267;47.838;12.128;2023-01-08T03:55:46;14.15;;;9.90;;
27925;SDS011;15267;47.838;12.128;2023-01-08T03:58:12;15.05;;;9.82;;
27925;SDS011;15267;47.838;12.128;2023-01-08T04:00:38;15.15;;;10.00;;
27925;SDS011;15267;47.838;12.128;2023-01-08T04:03:04;14.57;;;10.23;;
27925;SDS011;15267;47.838;12.128;2023-01-08T04:05:30;12.73;;;9.18;;
27925;SDS011;15267;47.838;12.128;2023-01-08T04:07:56;16.52;;;10.15;;
27925;SDS011;15267;47.838;12.128;2023-01-08T04:10:23;13.93;;;9.45;;
27925;SDS011;15267;47.838;12.128;2023-01-08T04:12:49;15.82;;;9.48;;
27925;SDS011;15267;47.838;12.128;2023-01-08T04:15:15;14.55;;;9.30;;
27925;SDS011;15267;47.838;12.128;2023-01-08T04:17:41;13.88;;;9.70;;
27925;SDS011;15267;47.838;12.128;2023-01-08T04:20:07;12.60;;;8.88;;
27925;SDS011;15267;47.838;12.128;2023-01-08T04:22:34;12.45;;;9.07;;
27925;SDS011;15267;47.838;12.128;2023-01-08T04:25:00;15.80;;;9.27;;
27925;SDS011;15267;47.838;12.128;2023-01-08T04:27:26;13.20;;;8.93;;
27925;SDS011;15267;47.838;12.128;2023-01-08T04:29:52;12.95;;;8.82;;
27925;SDS011;15267;47.838;12.128;2023-01-08T04:32:18;11.20;;;8.45;;
27925;SDS011;15267;47.838;12.128;2023-01-08T04:34:45;13.00;;;8.75;;
27925;SDS011;15267;47.838;12.128;2023-01-08T04:37:11;13.45;;;8.43;;
27925;SDS011;15267;47.838;12.128;2023-01-08T04:39:37;12.75;;;8.73;;
27925;SDS011;15267;47.838;12.128;2023-01-08T04:42:03;11.82;;;8.52;;
27925;SDS011;15267;47.838;12.128;2023-01-08T04:44:29;12.88;;;8.63;;
27925;SDS011;15267;47.838;12.128;2023-01-08T04:46:55;12.43;;;8.10;;
27925;SDS011;15267;47.838;12.128;2023-01-08T04:49:21;10.77;;;7.55;;
27925;SDS011;15267;47.838;12.128;2023-01-08T04:51:47;11.13;;;7.47;;
27925;SDS011;15267;47.838;12.128;2023-01-08T04:54:13;9.40;;;7.05;;
27925;SDS011;15267;47.838;12.128;2023-01-08T04:56:39;10.02;;;7.43;;
27925;SDS011;15267;47.838;12.128;2023-01-08T04:59:05;11.57;;;7.05;;
27925;SDS011;15267;47.838;12.128;2023-01-08T05:01:31;10.02;;;7.22;;
27925;SDS011;15267;47.838;12.128;2023-01-08T05:03:58;11.50;;;7.18;;
27925;SDS011;15267;47.838;12.128;2023-01-08T05:06:24;9.70;;;6.72;;
27925;SDS011;15267;47.838;12.128;2023-01-08T05:08:50;12.50;;;7.70;;
27925;SDS011;15267;47.838;12.128;2023-01-08T05:11:16;10.98;;;7.22;;
27925;SDS011;15267;47.838;12.128;2023-01-08T05:13:42;12.40;;;7.45;;
27925;SDS011;15267;47.838;12.128;2023-01-08T05:16:08;10.05;;;6.50;;
27925;SDS011;15267;47.838;12.128;2023-01-08T05:18:34;10.98;;;7.03;;
27925;SDS011;15267;47.838;12.128;2023-01-08T05:21:01;12.60;;;6.97;;
27925;SDS011;15267;47.838;12.128;2023-01-08T05:23:27;9.50;;;6.82;;
27925;SDS011;15267;47.838;12.128;2023-01-08T05:26:00;8.80;;;6.70;;
27925;SDS011;15267;47.838;12.128;2023-01-08T05:28:26;11.95;;;7.57;;
27925;SDS011;15267;47.838;12.128;2023-01-08T05:30:53;9.90;;;6.97;;
27925;SDS011;15267;47.838;12.128;2023-01-08T05:33:19;9.52;;;6.78;;
27925;SDS011;15267;47.838;12.128;2023-01-08T05:35:45;10.68;;;7.18;;
27925;SDS011;15267;47.838;12.128;2023-01-08T05:38:11;10.68;;;7.53;;
27925;SDS011;15267;47.838;12.128;2023-01-08T05:40:37;9.77;;;6.75;;
27925;SDS011;15267;47.838;12.128;2023-01-08T05:43:03;8.98;;;6.82;;
27925;SDS011;15267;47.838;12.128;2023-01-08T05:45:30;8.43;;;6.47;;
27925;SDS011;15267;47.838;12.128;2023-01-08T05:47:56;8.95;;;6.55;;
27925;SDS011;15267;47.838;12.128;2023-01-08T05:50:22;8.38;;;5.82;;
27925;SDS011;15267;47.838;12.128;2023-01-08T05:52:48;7.88;;;5.68;;
27925;SDS011;15267;47.838;12.128;2023-01-08T05:55:14;9.82;;;6.10;;
27925;SDS011;15267;47.838;12.128;2023-01-08T05:57:40;9.45;;;6.30;;
27925;SDS011;15267;47.838;12.128;2023-01-08T06:00:07;8.82;;;6.40;;
27925;SDS011;15267;47.838;12.128;2023-01-08T06:02:33;8.63;;;5.95;;
27925;SDS011;15267;47.838;12.128;2023-01-08T06:04:59;7.22;;;5.45;;
27925;SDS011;15267;47.838;12.128;2023-01-08T06:07:25;7.63;;;5.65;;
27925;SDS011;15267;47.838;12.128;2023-01-08T06:09:52;10.13;;;6.35;;
27925;SDS011;15267;47.838;12.128;2023-01-08T06:12:18;8.23;;;6.80;;
27925;SDS011;15267;47.838;12.128;2023-01-08T06:14:44;10.35;;;7.20;;
27925;SDS011;15267;47.838;12.128;2023-01-08T06:17:10;12.60;;;10.68;;
27925;SDS011;15267;47.838;12.128;2023-01-08T06:19:36;10.85;;;8.75;;
27925;SDS011;15267;47.838;12.128;2023-01-08T06:22:05;12.00;;;7.93;;
27925;SDS011;15267;47.838;12.128;2023-01-08T06:24:31;10.25;;;6.20;;
27925;SDS011;15267;47.838;12.128;2023-01-08T06:26:57;10.05;;;7.03;;
27925;SDS011;15267;47.838;12.128;2023-01-08T06:29:23;10.90;;;7.13;;
27925;SDS011;15267;47.838;12.128;2023-01-08T06:31:49;17.95;;;8.43;;
27925;SDS011;15267;47.838;12.128;2023-01-08T06:34:15;12.30;;;8.45;;
27925;SDS011;15267;47.838;12.128;2023-01-08T06:36:41;15.85;;;9.10;;
27925;SDS011;15267;47.838;12.128;2023-01-08T06:39:07;13.02;;;8.30;;
27925;SDS011;15267;47.838;12.128;2023-01-08T06:41:33;14.27;;;8.65;;
27925;SDS011;15267;47.838;12.128;2023-01-08T06:43:59;13.73;;;9.27;;
27925;SDS011;15267;47.838;12.128;2023-01-08T06:46:25;16.10;;;10.40;;
27925;SDS011;15267;47.838;12.128;2023-01-08T06:48:51;22.30;;;13.52;;
27925;SDS011;15267;47.838;12.128;2023-01-08T06:51:17;17.27;;;11.95;;
27925;SDS011;15267;47.838;12.128;2023-01-08T06:53:46;15.52;;;11.43;;
27925;SDS011;15267;47.838;12.128;2023-01-08T06:56:12;15.65;;;10.40;;
27925;SDS011;15267;47.838;12.128;2023-01-08T06:58:38;15.50;;;9.48;;
27925;SDS011;15267;47.838;12.128;2023-01-08T07:01:04;21.08;;;14.38;;
27925;SDS011;15267;47.838;12.128;2023-01-08T07:03:30;21.55;;;15.20;;
27925;SDS011;15267;47.838;12.128;2023-01-08T07:05:56;16.45;;;11.45;;
27925;SDS011;15267;47.838;12.128;2023-01-08T07:08:22;15.23;;;8.38;;
27925;SDS011;15267;47.838;12.128;2023-01-08T07:10:48;13.82;;;8.63;;
27925;SDS011;15267;47.838;12.128;2023-01-08T07:13:14;15.15;;;9.43;;
27925;SDS011;15267;47.838;12.128;2023-01-08T07:15:41;14.35;;;9.93;;
27925;SDS011;15267;47.838;12.128;2023-01-08T07:18:07;11.80;;;9.13;;
27925;SDS011;15267;47.838;12.128;2023-01-08T07:20:33;13.68;;;10.65;;
27925;SDS011;15267;47.838;12.128;2023-01-08T07:23:00;15.50;;;10.30;;
27925;SDS011;15267;47.838;12.128;2023-01-08T07:25:27;14.68;;;9.70;;
27925;SDS011;15267;47.838;12.128;2023-01-08T07:27:53;12.68;;;8.80;;
27925;SDS011;15267;47.838;12.128;2023-01-08T07:30:18;14.20;;;9.88;;
27925;SDS011;15267;47.838;12.128;2023-01-08T07:32:44;14.63;;;9.60;;
27925;SDS011;15267;47.838;12.128;2023-01-08T07:35:10;15.27;;;9.80;;
27925;SDS011;15267;47.838;12.128;2023-01-08T07:37:40;11.38;;;8.75;;
27925;SDS011;15267;47.838;12.128;2023-01-08T07:40:06;17.40;;;9.25;;
27925;SDS011;15267;47.838;12.128;2023-01-08T07:42:32;15.93;;;11.98;;
27925;SDS011;15267;47.838;12.128;2023-01-08T07:44:58;14.60;;;10.25;;
27925;SDS011;15267;47.838;12.128;2023-01-08T07:47:24;11.30;;;8.23;;
27925;SDS011;15267;47.838;12.128;2023-01-08T07:49:50;9.20;;;6.75;;
27925;SDS011;15267;47.838;12.128;2023-01-08T07:52:16;10.82;;;6.18;;
27925;SDS011;15267;47.838;12.128;2023-01-08T07:54:42;10.27;;;6.95;;
27925;SDS011;15267;47.838;12.128;2023-01-08T07:57:08;11.32;;;8.40;;
27925;SDS011;15267;47.838;12.128;2023-01-08T07:59:34;14.73;;;10.32;;
27925;SDS011;15267;47.838;12.128;2023-01-08T08:02:00;20.30;;;12.45;;
27925;SDS011;15267;47.838;12.128;2023-01-08T08:04:26;25.10;;;16.92;;
27925;SDS011;15267;47.838;12.128;2023-01-08T08:06:52;25.33;;;18.92;;
27925;SDS011;15267;47.838;12.128;2023-01-08T08:09:18;22.80;;;16.52;;
27925;SDS011;15267;47.838;12.128;2023-01-08T08:11:44;19.00;;;13.40;;
27925;SDS011;15267;47.838;12.128;2023-01-08T08:14:10;15.50;;;11.57;;
27925;SDS011;15267;47.838;12.128;2023-01-08T08:16:36;12.43;;;9.50;;
27925;SDS011;15267;47.838;12.128;2023-01-08T08:19:02;11.48;;;8.45;;
27925;SDS011;15267;47.838;12.128;2023-01-08T08:21:28;10.60;;;7.95;;
27925;SDS011;15267;47.838;12.128;2023-01-08T08:23:54;11.13;;;8.40;;
27925;SDS011;15267;47.838;12.128;2023-01-08T08:26:20;12.38;;;8.52;;
27925;SDS011;15267;47.838;12.128;2023-01-08T08:28:46;12.90;;;8.48;;
27925;SDS011;15267;47.838;12.128;2023-01-08T08:31:12;13.25;;;8.55;;
27925;SDS011;15267;47.838;12.128;2023-01-08T08:33:38;11.35;;;8.27;;
27925;SDS011;15267;47.838;12.128;2023-01-08T08:36:04;11.63;;;8.07;;
27925;SDS011;15267;47.838;12.128;2023-01-08T08:38:30;11.20;;;7.70;;
27925;SDS011;15267;47.838;12.128;2023-01-08T08:40:56;11.20;;;7.95;;
27925;SDS011;15267;47.838;12.128;2023-01-08T08:43:22;12.38;;;8.25;;
27925;SDS011;15267;47.838;12.128;2023-01-08T08:45:48;12.27;;;9.10;;
27925;SDS011;15267;47.838;12.128;2023-01-08T08:48:14;14.38;;;10.30;;
27925;SDS011;15267;47.838;12.128;2023-01-08T08:50:40;15.25;;;11.85;;
27925;SDS011;15267;47.838;12.128;2023-01-08T08:53:07;20.15;;;13.23;;
27925;SDS011;15267;47.838;12.128;2023-01-08T08:55:34;21.48;;;12.70;;
27925;SDS011;15267;47.838;12.128;2023-01-08T08:58:07;21.17;;;13.82;;
27925;SDS011;15267;47.838;12.128;2023-01-08T09:00:35;18.85;;;12.95;;
27925;SDS011;15267;47.838;12.128;2023-01-08T09:03:01;18.33;;;12.65;;
27925;SDS011;15267;47.838;12.128;2023-01-08T09:05:27;15.68;;;12.20;;
27925;SDS011;15267;47.838;12.128;2023-01-08T09:07:54;15.25;;;12.13;;
27925;SDS011;15267;47.838;12.128;2023-01-08T09:10:20;16.67;;;12.10;;
27925;SDS011;15267;47.838;12.128;2023-01-08T09:12:46;16.38;;;12.32;;
27925;SDS011;15267;47.838;12.128;2023-01-08T09:15:12;13.63;;;11.13;;
27925;SDS011;15267;47.838;12.128;2023-01-08T09:17:38;14.18;;;10.60;;
27925;SDS011;15267;47.838;12.128;2023-01-08T09:20:04;13.43;;;9.98;;
27925;SDS011;15267;47.838;12.128;2023-01-08T09:22:31;15.57;;;11.02;;
27925;SDS011;15267;47.838;12.128;2023-01-08T09:24:57;15.57;;;10.32;;
27925;SDS011;15267;47.838;12.128;2023-01-08T09:27:23;12.10;;;8.25;;
27925;SDS011;15267;47.838;12.128;2023-01-08T09:29:50;13.95;;;9.20;;
27925;SDS011;15267;47.838;12.128;2023-01-08T09:32:16;13.98;;;8.35;;
27925;SDS011;15267;47.838;12.128;2023-01-08T09:34:42;13.65;;;8.70;;
27925;SDS011;15267;47.838;12.128;2023-01-08T09:37:11;9.23;;;7.68;;
27925;SDS011;15267;47.838;12.128;2023-01-08T09:39:37;10.23;;;7.53;;
27925;SDS011;15267;47.838;12.128;2023-01-08T09:42:04;9.65;;;6.60;;
27925;SDS011;15267;47.838;12.128;2023-01-08T09:44:33;8.30;;;6.50;;
27925;SDS011;15267;47.838;12.128;2023-01-08T09:47:00;15.38;;;7.07;;
27925;SDS011;15267;47.838;12.128;2023-01-08T09:50:01;11.27;;;6.53;;
27925;SDS011;15267;47.838;12.128;2023-01-08T09:52:19;9.35;;;6.40;;
27925;SDS011;15267;47.838;12.128;2023-01-08T09:54:46;9.75;;;6.80;;
27925;SDS011;15267;47.838;12.128;2023-01-08T09:57:12;11.55;;;6.20;;
27925;SDS011;15267;47.838;12.128;2023-01-08T09:59:38;8.23;;;6.03;;
27925;SDS011;15267;47.838;12.128;2023-01-08T10:02:09;9.55;;;6.10;;
27925;SDS011;15267;47.838;12.128;2023-01-08T10:04:36;12.98;;;7.57;;
27925;SDS011;15267;47.838;12.128;2023-01-08T10:07:10;11.98;;;7.60;;
27925;SDS011;15267;47.838;12.128;2023-01-08T10:09:39;10.73;;;7.20;;
27925;SDS011;15267;47.838;12.128;2023-01-08T10:12:05;13.50;;;7.78;;
27925;SDS011;15267;47.838;12.128;2023-01-08T10:14:33;8.63;;;6.32;;
27925;SDS011;15267;47.838;12.128;2023-01-08T10:17:03;11.55;;;7.43;;
27925;SDS011;15267;47.838;12.128;2023-01-08T10:19:30;12.15;;;7.45;;
27925;SDS011;15267;47.838;12.128;2023-01-08T10:21:56;13.48;;;8.32;;
27925;SDS011;15267;47.838;12.128;2023-01-08T10:24:32;12.98;;;7.35;;
27925;SDS011;15267;47.838;12.128;2023-01-08T10:27:09;11.38;;;7.53;;
27925;SDS011;15267;47.838;12.128;2023-01-08T10:29:37;12.43;;;8.15;;
27925;SDS011;15267;47.838;12.128;2023-01-08T10:39:45;8.38;;;6.25;;
27925;SDS011;15267;47.838;12.128;2023-01-08T10:42:12;9.90;;;6.28;;
27925;SDS011;15267;47.838;12.128;2023-01-08T10:44:38;8.07;;;5.95;;
27925;SDS011;15267;47.838;12.128;2023-01-08T10:47:12;9.05;;;5.60;;
27925;SDS011;15267;47.838;12.128;2023-01-08T10:49:41;8.88;;;6.38;;
27925;SDS011;15267;47.838;12.128;2023-01-08T10:52:21;8.77;;;6.32;;
27925;SDS011;15267;47.838;12.128;2023-01-08T10:54:48;8.90;;;6.97;;
27925;SDS011;15267;47.838;12.128;2023-01-08T10:57:25;15.52;;;9.85;;
27925;SDS011;15267;47.838;12.128;2023-01-08T10:59:52;17.45;;;12.68;;
27925;SDS011;15267;47.838;12.128;2023-01-08T11:02:34;17.65;;;12.15;;
27925;SDS011;15267;47.838;12.128;2023-01-08T11:05:01;13.32;;;9.45;;
27925;SDS011;15267;47.838;12.128;2023-01-08T11:07:29;10.88;;;7.95;;
27925;SDS011;15267;47.838;12.128;2023-01-08T11:09:59;10.15;;;7.30;;
27925;SDS011;15267;47.838;12.128;2023-01-08T11:12:33;11.57;;;8.00;;
27925;SDS011;15267;47.838;12.128;2023-01-08T11:15:00;16.23;;;10.68;;
27925;SDS011;15267;47.838;12.128;2023-01-08T11:17:26;13.90;;;9.63;;
27925;SDS011;15267;47.838;12.128;2023-01-08T11:19:52;12.00;;;8.50;;
27925;SDS011;15267;47.838;12.128;2023-01-08T11:22:20;10.98;;;8.55;;
27925;SDS011;15267;47.838;12.128;2023-01-08T11:24:46;10.95;;;7.53;;
27925;SDS011;15267;47.838;12.128;2023-01-08T11:27:14;10.00;;;6.85;;
27925;SDS011;15267;47.838;12.128;2023-01-08T11:29:48;9.73;;;6.40;;
27925;SDS011;15267;47.838;12.128;2023-01-08T11:35:20;8.52;;;5.90;;
27925;SDS011;15267;47.838;12.128;2023-01-08T11:37:50;8.55;;;5.93;;
27925;SDS011;15267;47.838;12.128;2023-01-08T11:40:21;9.18;;;6.10;;
27925;SDS011;15267;47.838;12.128;2023-01-08T11:56:08;9.93;;;6.43;;
27925;SDS011;15267;47.838;12.128;2023-01-08T11:58:41;14.07;;;8.30;;
27925;SDS011;15267;47.838;12.128;2023-01-08T12:03:48;13.05;;;8.48;;
27925;SDS011;15267;47.838;12.128;2023-01-08T12:08:45;16.95;;;9.13;;
27925;SDS011;15267;47.838;12.128;2023-01-08T12:11:22;11.70;;;7.82;;
27925;SDS011;15267;47.838;12.128;2023-01-08T12:21:48;10.07;;;7.28;;
27925;SDS011;15267;47.838;12.128;2023-01-08T12:24:28;9.05;;;6.00;;
27925;SDS011;15267;47.838;12.128;2023-01-08T12:27:41;7.32;;;5.63;;
27925;SDS011;15267;47.838;12.128;2023-01-08T12:30:05;7.15;;;5.55;;
27925;SDS011;15267;47.838;12.128;2023-01-08T12:32:37;9.63;;;5.90;;
27925;SDS011;15267;47.838;12.128;2023-01-08T12:35:08;8.45;;;5.55;;
27925;SDS011;15267;47.838;12.128;2023-01-08T12:38:21;8.02;;;6.32;;
27925;SDS011;15267;47.838;12.128;2023-01-08T12:42:50;9.80;;;7.32;;
27925;SDS011;15267;47.838;12.128;2023-01-08T12:45:25;11.35;;;6.93;;
27925;SDS011;15267;47.838;12.128;2023-01-08T12:48:00;9.63;;;7.10;;
27925;SDS011;15267;47.838;12.128;2023-01-08T12:53:29;9.82;;;6.97;;
27925;SDS011;15267;47.838;12.128;2023-01-08T13:03:30;9.55;;;7.32;;
27925;SDS011;15267;47.838;12.128;2023-01-08T13:06:04;11.00;;;7.30;;
27925;SDS011;15267;47.838;12.128;2023-01-08T13:08:32;9.82;;;7.30;;
27925;SDS011;15267;47.838;12.128;2023-01-08T13:10:58;9.25;;;7.28;;
27925;SDS011;15267;47.838;12.128;2023-01-08T13:13:35;12.52;;;9.00;;
27925;SDS011;15267;47.838;12.128;2023-01-08T13:16:16;12.60;;;9.15;;
27925;SDS011;15267;47.838;12.128;2023-01-08T13:18:59;12.27;;;9.32;;
27925;SDS011;15267;47.838;12.128;2023-01-08T13:21:30;17.67;;;11.13;;
27925;SDS011;15267;47.838;12.128;2023-01-08T13:24:39;13.55;;;9.50;;
27925;SDS011;15267;47.838;12.128;2023-01-08T13:26:46;12.70;;;9.50;;
27925;SDS011;15267;47.838;12.128;2023-01-08T13:29:23;21.15;;;13.57;;
27925;SDS011;15267;47.838;12.128;2023-01-08T13:31:49;18.80;;;12.65;;
27925;SDS011;15267;47.838;12.128;2023-01-08T13:34:20;9.98;;;7.75;;
27925;SDS011;15267;47.838;12.128;2023-01-08T13:36:56;11.25;;;8.18;;
27925;SDS011;15267;47.838;12.128;2023-01-08T13:39:23;23.20;;;15.02;;
27925;SDS011;15267;47.838;12.128;2023-01-08T13:44:31;18.38;;;12.32;;
27925;SDS011;15267;47.838;12.128;2023-01-08T13:47:02;17.33;;;12.60;;
27925;SDS011;15267;47.838;12.128;2023-01-08T13:51:57;33.38;;;23.67;;
27925;SDS011;15267;47.838;12.128;2023-01-08T13:57:00;30.00;;;21.05;;
27925;SDS011;15267;47.838;12.128;2023-01-08T14:01:54;23.80;;;16.27;;
27925;SDS011;15267;47.838;12.128;2023-01-08T14:04:21;19.67;;;13.43;;
27925;SDS011;15267;47.838;12.128;2023-01-08T14:06:47;16.08;;;10.80;;
27925;SDS011;15267;47.838;12.128;2023-01-08T14:09:18;14.50;;;10.10;;
27925;SDS011;15267;47.838;12.128;2023-01-08T14:11:45;14.25;;;9.50;;
27925;SDS011;15267;47.838;12.128;2023-01-08T14:14:12;11.38;;;9.00;;
27925;SDS011;15267;47.838;12.128;2023-01-08T14:16:41;14.88;;;10.93;;
27925;SDS011;15267;47.838;12.128;2023-01-08T14:19:07;15.90;;;9.50;;
27925;SDS011;15267;47.838;12.128;2023-01-08T14:21:33;14.43;;;9.27;;
27925;SDS011;15267;47.838;12.128;2023-01-08T14:23:59;14.65;;;10.20;;
27925;SDS011;15267;47.838;12.128;2023-01-08T14:26:30;14.05;;;10.05;;
27925;SDS011;15267;47.838;12.128;2023-01-08T14:28:57;17.25;;;12.13;;
27925;SDS011;15267;47.838;12.128;2023-01-08T14:31:25;14.82;;;10.02;;
27925;SDS011;15267;47.838;12.128;2023-01-08T14:33:55;16.85;;;10.05;;
27925;SDS011;15267;47.838;12.128;2023-01-08T14:36:21;14.73;;;9.20;;
27925;SDS011;15267;47.838;12.128;2023-01-08T14:38:48;11.05;;;8.68;;
27925;SDS011;15267;47.838;12.128;2023-01-08T14:41:21;14.88;;;10.65;;
27925;SDS011;15267;47.838;12.128;2023-01-08T14:43:49;20.85;;;12.98;;
27925;SDS011;15267;47.838;12.128;2023-01-08T14:46:19;22.48;;;13.88;;
27925;SDS011;15267;47.838;12.128;2023-01-08T14:48:46;22.38;;;15.35;;
27925;SDS011;15267;47.838;12.128;2023-01-08T14:51:12;20.55;;;13.15;;
27925;SDS011;15267;47.838;12.128;2023-01-08T14:53:44;17.73;;;11.52;;
27925;SDS011;15267;47.838;12.128;2023-01-08T14:56:14;17.23;;;12.23;;
27925;SDS011;15267;47.838;12.128;2023-01-08T14:58:42;17.98;;;13.20;;
27925;SDS011;15267;47.838;12.128;2023-01-08T15:01:14;21.30;;;14.80;;
27925;SDS011;15267;47.838;12.128;2023-01-08T15:03:41;63.03;;;35.60;;
27925;SDS011;15267;47.838;12.128;2023-01-08T15:06:08;44.83;;;26.08;;
27925;SDS011;15267;47.838;12.128;2023-01-08T15:08:41;26.60;;;17.67;;
27925;SDS011;15267;47.838;12.128;2023-01-08T15:13:43;86.85;;;51.40;;
27925;SDS011;15267;47.838;12.128;2023-01-08T15:16:10;81.43;;;51.47;;
27925;SDS011;15267;47.838;12.128;2023-01-08T15:18:40;42.28;;;29.77;;
27925;SDS011;15267;47.838;12.128;2023-01-08T15:21:07;49.17;;;33.03;;
27925;SDS011;15267;47.838;12.128;2023-01-08T15:23:36;47.42;;;33.10;;
27925;SDS011;15267;47.838;12.128;2023-01-08T15:26:04;35.25;;;25.42;;
27925;SDS011;15267;47.838;12.128;2023-01-08T15:28:33;34.17;;;25.25;;
27925;SDS011;15267;47.838;12.128;2023-01-08T15:30:59;36.30;;;25.80;;
27925;SDS011;15267;47.838;12.128;2023-01-08T15:33:25;29.63;;;22.15;;
27925;SDS011;15267;47.838;12.128;2023-01-08T15:35:52;28.70;;;21.17;;
27925;SDS011;15267;47.838;12.128;2023-01-08T15:38:18;32.28;;;23.95;;
27925;SDS011;15267;47.838;12.128;2023-01-08T15:40:45;30.48;;;22.77;;